createdAt,value
2022-08-30T00:04:11.730Z,17.80
2022-08-30T00:09:14.122Z,15.68
2022-08-30T00:14:16.348Z,17.03
2022-08-30T00:19:18.466Z,13.63
2022-08-30T00:24:20.623Z,15.20
2022-08-30T00:29:23.772Z,13.00
2022-08-30T00:34:25.939Z,18.20
2022-08-30T00:39:28.176Z,14.90
2022-08-30T00:44:30.398Z,13.77
2022-08-30T00:49:34.502Z,16.63
2022-08-30T00:54:37.547Z,19.42
2022-08-30T00:59:40.937Z,19.05
2022-08-30T01:04:44.334Z,18.88
2022-08-30T01:09:46.988Z,20.40
2022-08-30T01:14:49.736Z,21.58
2022-08-30T01:19:58.718Z,23.70
2022-08-30T01:25:02.472Z,29.27
2022-08-30T01:30:06.692Z,20.13
2022-08-30T01:35:10.772Z,24.73
2022-08-30T01:40:17.425Z,19.23
2022-08-30T01:45:19.644Z,21.50
2022-08-30T01:50:22.020Z,25.73
2022-08-30T01:55:24.242Z,25.77
2022-08-30T02:00:26.688Z,17.02
2022-08-30T02:05:28.858Z,19.40
2022-08-30T02:10:31.265Z,22.08
2022-08-30T02:15:41.617Z,21.77
2022-08-30T02:20:44.159Z,27.00
2022-08-30T02:25:46.761Z,24.23
2022-08-30T02:30:49.106Z,21.02
2022-08-30T02:35:51.326Z,29.37
2022-08-30T02:40:53.758Z,27.52
2022-08-30T02:45:56.089Z,28.73
2022-08-30T02:51:05.750Z,23.70
2022-08-30T02:56:13.617Z,24.30
2022-08-30T03:01:16.619Z,28.33
2022-08-30T03:06:18.991Z,28.55
2022-08-30T03:11:21.232Z,33.90
2022-08-30T03:16:23.539Z,39.67
2022-08-30T03:21:25.758Z,36.03
2022-08-30T03:26:27.932Z,31.17
2022-08-30T03:31:30.139Z,36.42
2022-08-30T03:36:33.862Z,37.20
2022-08-30T03:41:36.078Z,37.75
2022-08-30T03:46:39.056Z,55.40
2022-08-30T03:51:41.288Z,43.75
2022-08-30T03:56:44.000Z,37.80
2022-08-30T04:01:46.253Z,39.60
2022-08-30T04:06:49.223Z,41.22
2022-08-30T04:11:51.382Z,37.40
2022-08-30T04:16:53.582Z,37.15
2022-08-30T04:21:58.630Z,46.22
2022-08-30T04:27:00.948Z,31.55
2022-08-30T04:32:03.473Z,27.08
2022-08-30T04:37:05.735Z,31.27
2022-08-30T04:42:12.082Z,27.92
2022-08-30T04:47:15.433Z,34.28
2022-08-30T04:52:17.627Z,31.35
2022-08-30T04:57:19.846Z,30.63
2022-08-30T05:02:23.662Z,36.63
2022-08-30T05:07:31.071Z,42.33
2022-08-30T05:12:33.277Z,37.95
2022-08-30T05:17:37.670Z,40.78
2022-08-30T05:23:19.479Z,36.65
2022-08-30T05:33:51.283Z,44.00
2022-08-30T05:38:54.428Z,55.35
2022-08-30T05:44:00.708Z,52.72
2022-08-30T05:49:05.022Z,61.05
2022-08-30T05:54:07.373Z,66.88
2022-08-30T05:59:09.807Z,60.83
2022-08-30T06:04:13.145Z,68.53
2022-08-30T06:14:17.425Z,67.18
2022-08-30T06:19:19.849Z,68.50
2022-08-30T06:24:35.693Z,73.90
2022-08-30T06:29:44.262Z,68.57
2022-08-30T06:34:46.528Z,62.70
2022-08-30T06:39:48.698Z,53.70
2022-08-30T06:44:50.865Z,40.08
2022-08-30T06:50:00.593Z,34.15
2022-08-30T06:55:03.219Z,15.63
2022-08-30T07:00:08.594Z,8.80
2022-08-30T07:05:13.129Z,5.30
2022-08-30T07:10:17.805Z,5.22
2022-08-30T07:15:20.076Z,4.93
2022-08-30T07:20:22.242Z,6.32
2022-08-30T07:25:24.639Z,5.67
2022-08-30T07:30:26.830Z,3.45
2022-08-30T07:35:29.123Z,5.72
2022-08-30T07:40:34.517Z,2.35
2022-08-30T07:45:38.380Z,5.68
2022-08-30T07:50:44.211Z,4.45
2022-08-30T07:55:46.378Z,2.28
2022-08-30T08:00:48.750Z,2.60
2022-08-30T08:05:50.907Z,3.17
2022-08-30T08:10:53.105Z,1.77
2022-08-30T08:15:55.330Z,3.08
2022-08-30T08:20:58.877Z,5.57
2022-08-30T08:26:01.924Z,2.78
2022-08-30T08:31:13.140Z,3.45
2022-08-30T08:36:15.855Z,1.80
2022-08-30T08:41:29.848Z,1.95
2022-08-30T08:47:05.723Z,1.90
2022-08-30T08:52:17.087Z,2.28
2022-08-30T08:57:22.711Z,1.98
2022-08-30T09:02:29.907Z,3.65
2022-08-30T09:07:38.450Z,2.47
2022-08-30T09:12:40.926Z,1.52
2022-08-30T09:17:50.543Z,3.40
2022-08-30T09:22:53.269Z,4.22
2022-08-30T09:28:11.092Z,2.10
2022-08-30T09:33:20.800Z,1.67
2022-08-30T09:38:31.331Z,1.77
2022-08-30T09:43:35.237Z,2.67
2022-08-30T09:48:42.521Z,2.45
2022-08-30T09:54:18.276Z,3.60
2022-08-30T10:00:03.773Z,1.10
2022-08-30T10:05:44.187Z,2.72
2022-08-30T10:10:52.039Z,1.73
2022-08-30T10:16:02.811Z,2.03
2022-08-30T10:21:17.055Z,1.50
2022-08-30T10:26:36.369Z,1.23
2022-08-30T10:31:49.220Z,1.50
2022-08-30T10:42:08.796Z,3.58
2022-08-30T10:47:36.292Z,3.00
2022-08-30T10:52:56.680Z,1.58
2022-08-30T10:58:05.174Z,2.80
2022-08-30T11:03:25.834Z,1.40
2022-08-30T11:08:49.735Z,2.65
2022-08-30T11:13:57.138Z,2.63
2022-08-30T11:19:00.078Z,2.67
2022-08-30T11:24:07.848Z,1.17
2022-08-30T11:29:35.314Z,1.80
2022-08-30T11:34:59.526Z,1.20
2022-08-30T11:40:06.023Z,2.95
2022-08-30T11:45:25.445Z,0.90
2022-08-30T11:50:55.141Z,2.42
2022-08-30T11:56:10.315Z,2.78
2022-08-30T12:01:50.693Z,0.82
2022-08-30T12:07:00.180Z,1.30
2022-08-30T12:12:11.425Z,1.10
2022-08-30T12:17:45.471Z,0.90
2022-08-30T12:22:47.795Z,2.15
2022-08-30T12:27:50.899Z,1.42
2022-08-30T12:32:53.869Z,1.58
2022-08-30T12:38:05.438Z,2.33
2022-08-30T12:43:24.727Z,1.35
2022-08-30T12:48:28.441Z,2.08
2022-08-30T12:53:51.400Z,0.95
2022-08-30T13:04:17.228Z,1.53
2022-08-30T13:09:32.499Z,1.75
2022-08-30T13:14:39.129Z,2.47
2022-08-30T13:19:56.373Z,3.15
2022-08-30T13:24:59.084Z,2.75
2022-08-30T13:30:27.771Z,2.63
2022-08-30T13:35:31.411Z,3.17
2022-08-30T13:40:34.078Z,1.00
2022-08-30T13:45:41.657Z,1.77
2022-08-30T13:50:44.195Z,2.20
2022-08-30T13:55:46.395Z,1.80
2022-08-30T14:00:50.634Z,1.70
2022-08-30T14:06:15.701Z,1.67
2022-08-30T14:16:28.193Z,1.40
2022-08-30T14:21:30.828Z,2.10
2022-08-30T14:26:36.944Z,1.55
2022-08-30T14:31:40.624Z,1.70
2022-08-30T14:36:44.944Z,0.90
2022-08-30T14:41:50.752Z,2.95
2022-08-30T14:46:54.053Z,2.38
2022-08-30T14:51:56.634Z,1.85
2022-08-30T14:56:58.834Z,1.23
2022-08-30T15:02:01.772Z,2.25
2022-08-30T15:07:04.582Z,1.05
2022-08-30T15:12:06.799Z,1.50
2022-08-30T15:17:09.906Z,2.65
2022-08-30T15:22:12.176Z,1.02
2022-08-30T15:27:14.340Z,0.95
2022-08-30T15:32:16.936Z,1.10
2022-08-30T15:37:20.595Z,1.15
2022-08-30T15:42:22.932Z,2.03
2022-08-30T15:47:25.103Z,1.20
2022-08-30T15:57:29.748Z,1.43
2022-08-30T16:02:32.160Z,2.00
2022-08-30T16:07:38.605Z,1.70
2022-08-30T16:12:42.669Z,1.42
2022-08-30T16:17:45.104Z,2.72
2022-08-30T16:22:47.401Z,1.83
2022-08-30T16:27:49.584Z,2.60
2022-08-30T16:37:53.853Z,1.17
2022-08-30T16:42:56.200Z,1.98
2022-08-30T16:47:58.383Z,1.65
2022-08-30T16:53:00.603Z,2.40
2022-08-30T16:58:08.474Z,3.72
2022-08-30T17:03:13.482Z,1.90
2022-08-30T17:08:15.914Z,2.45
2022-08-30T17:13:18.393Z,1.67
2022-08-30T17:18:20.568Z,2.10
2022-08-30T17:23:22.986Z,1.75
2022-08-30T17:28:25.959Z,2.25
2022-08-30T17:33:28.944Z,1.30
2022-08-30T17:38:31.172Z,5.32
2022-08-30T17:43:35.354Z,4.38
2022-08-30T17:48:38.834Z,1.17
2022-08-30T17:53:41.099Z,2.28
2022-08-30T17:58:43.280Z,5.22
2022-08-30T18:03:45.833Z,1.40
2022-08-30T18:08:48.036Z,3.63
2022-08-30T18:13:50.231Z,2.70
2022-08-30T18:18:55.687Z,2.97
2022-08-30T18:23:59.865Z,4.95
2022-08-30T18:29:02.809Z,3.03
2022-08-30T18:34:05.052Z,4.40
2022-08-30T18:39:07.536Z,2.77
2022-08-30T18:44:26.853Z,5.30
2022-08-30T18:49:32.211Z,2.70
2022-08-30T18:54:49.781Z,2.47
2022-08-30T18:59:54.510Z,3.03
2022-08-30T19:04:56.684Z,2.77
2022-08-30T19:09:59.079Z,3.03
2022-08-30T19:15:02.188Z,4.75
2022-08-30T19:20:17.917Z,3.45
2022-08-30T19:25:22.259Z,2.75
2022-08-30T19:30:29.891Z,7.20
2022-08-30T19:35:32.682Z,3.10
2022-08-30T19:40:34.894Z,2.47
2022-08-30T19:45:37.634Z,2.55
2022-08-30T19:50:39.790Z,3.60
2022-08-30T20:06:08.915Z,1.25
2022-08-30T20:11:19.052Z,1.73
2022-08-30T20:16:21.221Z,1.35
2022-08-30T20:21:32.119Z,1.67
2022-08-30T20:26:34.587Z,0.57
2022-08-30T20:31:38.931Z,1.00
2022-08-30T20:36:41.129Z,0.80
2022-08-30T20:41:44.477Z,1.85
2022-08-30T20:46:48.443Z,2.25
2022-08-30T20:56:56.345Z,2.42
2022-08-30T21:02:00.085Z,5.07
2022-08-30T21:07:02.335Z,1.38
2022-08-30T21:12:05.042Z,1.17
2022-08-30T21:17:07.239Z,2.55
2022-08-30T21:22:09.944Z,0.90
2022-08-30T21:27:12.130Z,1.45
2022-08-30T21:32:14.622Z,4.57
2022-08-30T21:37:16.833Z,1.60
2022-08-30T21:42:19.008Z,2.07
2022-08-30T21:47:23.333Z,4.07
2022-08-30T21:52:26.231Z,1.58
2022-08-30T21:57:29.081Z,1.77
2022-08-30T22:02:32.972Z,1.08
2022-08-30T22:07:35.141Z,1.17
2022-08-30T22:12:37.424Z,1.88
2022-08-30T22:17:39.604Z,2.70
2022-08-30T22:22:41.773Z,1.40
2022-08-30T22:27:43.945Z,1.33
2022-08-30T22:32:46.100Z,0.95
2022-08-30T22:37:53.611Z,1.80
2022-08-30T22:42:55.907Z,2.17
2022-08-30T22:47:58.047Z,2.40
2022-08-30T22:53:00.302Z,0.65
2022-08-30T22:58:02.445Z,0.80
2022-08-30T23:03:04.657Z,0.75
2022-08-30T23:08:07.551Z,0.90
2022-08-30T23:13:09.982Z,2.42
2022-08-30T23:18:12.167Z,1.67
2022-08-30T23:23:14.581Z,0.80
2022-08-30T23:28:20.586Z,3.00
2022-08-30T23:33:22.986Z,0.82
2022-08-30T23:38:25.234Z,1.33
2022-08-30T23:43:27.503Z,0.93
2022-08-30T23:48:29.626Z,0.80
2022-08-30T23:53:31.778Z,1.75
2022-08-30T23:58:33.972Z,1.55
